sensor_id;sensor_type;location;lat;lon;timestamp;pressure;altitude;pressure_sealevel;temperature;humidity
71194;BME280;58903;47.210;8.618;2022-10-28T00:01:31;95122.69;;;26.17;46.96
71194;BME280;58903;47.210;8.618;2022-10-28T00:04:12;95117.19;;;26.17;46.97
71194;BME280;58903;47.210;8.618;2022-10-28T00:06:48;95114.19;;;26.15;46.89
71194;BME280;58903;47.210;8.618;2022-10-28T00:09:36;95112.19;;;26.16;46.39
71194;BME280;58903;47.210;8.618;2022-10-28T00:12:16;95112.91;;;26.16;46.73
71194;BME280;58903;47.210;8.618;2022-10-28T00:14:51;95120.44;;;26.16;46.31
71194;BME280;58903;47.210;8.618;2022-10-28T00:17:37;95120.94;;;26.14;47.11
71194;BME280;58903;47.210;8.618;2022-10-28T00:20:13;95118.44;;;26.16;47.14
71194;BME280;58903;47.210;8.618;2022-10-28T00:22:50;95117.69;;;26.16;46.82
71194;BME280;58903;47.210;8.618;2022-10-28T00:25:27;95112.91;;;26.16;46.49
71194;BME280;58903;47.210;8.618;2022-10-28T00:27:57;95115.41;;;26.14;46.88
71194;BME280;58903;47.210;8.618;2022-10-28T00:30:23;95118.16;;;26.14;46.43
71194;BME280;58903;47.210;8.618;2022-10-28T00:32:49;95118.69;;;26.13;46.20
71194;BME280;58903;47.210;8.618;2022-10-28T00:35:16;95125.22;;;26.15;46.29
71194;BME280;58903;47.210;8.618;2022-10-28T00:37:45;95126.44;;;26.14;46.29
71194;BME280;58903;47.210;8.618;2022-10-28T00:40:21;95116.19;;;26.15;46.92
71194;BME280;58903;47.210;8.618;2022-10-28T00:42:55;95118.16;;;26.14;46.38
71194;BME280;58903;47.210;8.618;2022-10-28T00:45:22;95115.16;;;26.12;46.37
71194;BME280;58903;47.210;8.618;2022-10-28T00:47:53;95115.66;;;26.11;46.81
71194;BME280;58903;47.210;8.618;2022-10-28T00:53:05;95110.91;;;26.11;46.65
71194;BME280;58903;47.210;8.618;2022-10-28T00:55:35;95109.38;;;26.10;46.49
71194;BME280;58903;47.210;8.618;2022-10-28T00:58:05;95117.66;;;26.10;46.31
71194;BME280;58903;47.210;8.618;2022-10-28T01:00:33;95120.41;;;26.10;46.71
71194;BME280;58903;47.210;8.618;2022-10-28T01:02:59;95125.47;;;26.12;46.16
71194;BME280;58903;47.210;8.618;2022-10-28T01:05:29;95118.41;;;26.11;46.30
71194;BME280;58903;47.210;8.618;2022-10-28T01:08:08;95121.94;;;26.11;46.58
71194;BME280;58903;47.210;8.618;2022-10-28T01:17:06;95107.13;;;26.09;47.01
71194;BME280;58903;47.210;8.618;2022-10-28T01:22:49;95111.09;;;26.08;46.91
71194;BME280;58903;47.210;8.618;2022-10-28T01:33:35;95109.13;;;26.08;46.54
71194;BME280;58903;47.210;8.618;2022-10-28T01:36:09;95112.38;;;26.07;46.65
71194;BME280;58903;47.210;8.618;2022-10-28T01:39:00;95107.34;;;26.05;46.57
71194;BME280;58903;47.210;8.618;2022-10-28T01:41:46;95112.88;;;26.05;46.95
71194;BME280;58903;47.210;8.618;2022-10-28T01:49:42;95109.34;;;26.05;46.49
71194;BME280;58903;47.210;8.618;2022-10-28T01:52:27;95109.09;;;26.03;46.15
71194;BME280;58903;47.210;8.618;2022-10-28T01:55:28;95105.84;;;26.04;46.67
71194;BME280;58903;47.210;8.618;2022-10-28T01:58:00;95093.28;;;26.03;46.33
71194;BME280;58903;47.210;8.618;2022-10-28T02:00:49;95102.31;;;26.04;46.49
71194;BME280;58903;47.210;8.618;2022-10-28T02:03:25;95099.31;;;26.02;46.80
71194;BME280;58903;47.210;8.618;2022-10-28T02:06:02;95100.06;;;26.02;46.42
71194;BME280;58903;47.210;8.618;2022-10-28T02:09:05;95089.03;;;26.02;46.89
71194;BME280;58903;47.210;8.618;2022-10-28T02:18:25;95086.78;;;26.01;46.46
71194;BME280;58903;47.210;8.618;2022-10-28T02:27:28;95076.50;;;26.01;46.84
71194;BME280;58903;47.210;8.618;2022-10-28T02:30:05;95088.03;;;26.00;46.17
71194;BME280;58903;47.210;8.618;2022-10-28T02:32:55;95087.28;;;25.99;46.14
71194;BME280;58903;47.210;8.618;2022-10-28T02:35:35;95084.25;;;25.97;46.32
71194;BME280;58903;47.210;8.618;2022-10-28T02:38:17;95085.78;;;25.98;46.70
71194;BME280;58903;47.210;8.618;2022-10-28T02:40:52;95089.78;;;25.97;46.50
71194;BME280;58903;47.210;8.618;2022-10-28T02:43:22;95096.81;;;25.98;46.79
71194;BME280;58903;47.210;8.618;2022-10-28T02:46:01;95100.03;;;25.97;46.55
71194;BME280;58903;47.210;8.618;2022-10-28T02:48:53;95100.81;;;25.97;46.23
71194;BME280;58903;47.210;8.618;2022-10-28T02:51:30;95095.03;;;25.95;46.53
71194;BME280;58903;47.210;8.618;2022-10-28T02:54:20;95105.56;;;25.97;46.20
71194;BME280;58903;47.210;8.618;2022-10-28T02:57:26;95108.81;;;25.95;46.39
71194;BME280;58903;47.210;8.618;2022-10-28T03:00:21;95108.31;;;25.97;46.44
71194;BME280;58903;47.210;8.618;2022-10-28T03:02:50;95102.06;;;25.96;46.33
71194;BME280;58903;47.210;8.618;2022-10-28T03:05:17;95108.81;;;25.95;46.04
71194;BME280;58903;47.210;8.618;2022-10-28T03:07:51;95110.34;;;25.96;46.60
71194;BME280;58903;47.210;8.618;2022-10-28T03:10:17;95104.06;;;25.96;46.53
71194;BME280;58903;47.210;8.618;2022-10-28T03:12:44;95102.53;;;25.95;46.87
71194;BME280;58903;47.210;8.618;2022-10-28T03:15:11;95104.06;;;25.96;46.57
71194;BME280;58903;47.210;8.618;2022-10-28T03:18:06;95114.31;;;25.95;46.93
71194;BME280;58903;47.210;8.618;2022-10-28T03:20:33;95104.06;;;25.96;46.55
71194;BME280;58903;47.210;8.618;2022-10-28T03:22:59;95111.56;;;25.95;46.68
71194;BME280;58903;47.210;8.618;2022-10-28T03:25:25;95105.03;;;25.93;46.45
71194;BME280;58903;47.210;8.618;2022-10-28T03:27:50;95110.56;;;25.93;46.38
71194;BME280;58903;47.210;8.618;2022-10-28T03:30:16;95111.31;;;25.93;46.49
71194;BME280;58903;47.210;8.618;2022-10-28T03:32:44;95114.56;;;25.92;46.75
71194;BME280;58903;47.210;8.618;2022-10-28T03:35:22;95105.53;;;25.91;46.04
71194;BME280;58903;47.210;8.618;2022-10-28T03:38:20;95100.28;;;25.93;46.35
71194;BME280;58903;47.210;8.618;2022-10-28T03:41:01;95094.00;;;25.93;46.73
71194;BME280;58903;47.210;8.618;2022-10-28T03:43:29;95097.28;;;25.91;46.71
71194;BME280;58903;47.210;8.618;2022-10-28T03:46:04;95090.25;;;25.90;46.69
71194;BME280;58903;47.210;8.618;2022-10-28T03:48:31;95089.25;;;25.93;46.35
71194;BME280;58903;47.210;8.618;2022-10-28T03:51:17;95087.00;;;25.92;46.56
71194;BME280;58903;47.210;8.618;2022-10-28T03:53:56;95084.00;;;25.90;46.23
71194;BME280;58903;47.210;8.618;2022-10-28T03:56:21;95081.97;;;25.90;46.77
71194;BME280;58903;47.210;8.618;2022-10-28T03:58:56;95074.97;;;25.89;46.65
71194;BME280;58903;47.210;8.618;2022-10-28T04:01:35;95082.25;;;25.92;46.66
71194;BME280;58903;47.210;8.618;2022-10-28T04:04:01;95084.00;;;25.90;46.32
71194;BME280;58903;47.210;8.618;2022-10-28T04:06:38;95073.72;;;25.90;46.68
71194;BME280;58903;47.210;8.618;2022-10-28T04:09:04;95070.94;;;25.90;46.48
71194;BME280;58903;47.210;8.618;2022-10-28T04:11:30;95070.47;;;25.92;46.52
71194;BME280;58903;47.210;8.618;2022-10-28T04:13:59;95075.22;;;25.91;46.69
71194;BME280;58903;47.210;8.618;2022-10-28T04:16:25;95071.25;;;25.92;46.33
71194;BME280;58903;47.210;8.618;2022-10-28T04:18:53;95072.47;;;25.91;45.95
71194;BME280;58903;47.210;8.618;2022-10-28T04:21:22;95073.72;;;25.90;46.05
71194;BME280;58903;47.210;8.618;2022-10-28T04:23:47;95073.72;;;25.90;46.41
71194;BME280;58903;47.210;8.618;2022-10-28T04:26:13;95079.97;;;25.91;46.41
71194;BME280;58903;47.210;8.618;2022-10-28T04:28:40;95078.50;;;25.90;46.44
71194;BME280;58903;47.210;8.618;2022-10-28T04:31:10;95076.97;;;25.89;46.66
71194;BME280;58903;47.210;8.618;2022-10-28T04:33:42;95085.25;;;25.89;46.26
71194;BME280;58903;47.210;8.618;2022-10-28T04:36:09;95084.00;;;25.90;45.94
71194;BME280;58903;47.210;8.618;2022-10-28T04:38:35;95086.75;;;25.90;45.88
71194;BME280;58903;47.210;8.618;2022-10-28T04:41:01;95086.75;;;25.90;46.02
71194;BME280;58903;47.210;8.618;2022-10-28T04:43:26;95088.00;;;25.89;46.49
71194;BME280;58903;47.210;8.618;2022-10-28T04:45:55;95094.50;;;25.86;46.03
71194;BME280;58903;47.210;8.618;2022-10-28T04:48:25;95088.72;;;25.84;46.17
71194;BME280;58903;47.210;8.618;2022-10-28T04:50:51;95088.25;;;25.85;46.31
71194;BME280;58903;47.210;8.618;2022-10-28T04:53:20;95085.97;;;25.84;45.98
71194;BME280;58903;47.210;8.618;2022-10-28T04:56:08;95085.97;;;25.84;46.53
71194;BME280;58903;47.210;8.618;2022-10-28T04:58:59;95094.22;;;25.84;46.21
71194;BME280;58903;47.210;8.618;2022-10-28T05:01:33;95099.47;;;25.82;46.46
71194;BME280;58903;47.210;8.618;2022-10-28T05:04:15;95099.22;;;25.80;46.96
71194;BME280;58903;47.210;8.618;2022-10-28T05:06:57;95090.97;;;25.80;45.82
71194;BME280;58903;47.210;8.618;2022-10-28T05:09:23;95087.94;;;25.78;46.28
71194;BME280;58903;47.210;8.618;2022-10-28T05:11:56;95088.72;;;25.78;46.46
71194;BME280;58903;47.210;8.618;2022-10-28T05:14:23;95078.94;;;25.77;46.00
71194;BME280;58903;47.210;8.618;2022-10-28T05:17:00;95091.72;;;25.80;46.80
71194;BME280;58903;47.210;8.618;2022-10-28T05:19:35;95089.22;;;25.82;46.74
71194;BME280;58903;47.210;8.618;2022-10-28T05:22:30;95085.97;;;25.84;45.71
71194;BME280;58903;47.210;8.618;2022-10-28T05:24:58;95093.75;;;25.85;45.76
71194;BME280;58903;47.210;8.618;2022-10-28T05:27:24;95088.72;;;25.84;46.12
71194;BME280;58903;47.210;8.618;2022-10-28T05:29:50;95076.72;;;25.81;46.20
71194;BME280;58903;47.210;8.618;2022-10-28T05:32:19;95068.19;;;25.79;46.81
71194;BME280;58903;47.210;8.618;2022-10-28T05:34:49;95064.66;;;25.79;46.30
71194;BME280;58903;47.210;8.618;2022-10-28T05:37:16;95064.88;;;25.75;46.29
71194;BME280;58903;47.210;8.618;2022-10-28T05:39:44;95069.88;;;25.71;47.32
71194;BME280;58903;47.210;8.618;2022-10-28T05:42:24;95065.38;;;25.68;47.03
71194;BME280;58903;47.210;8.618;2022-10-28T05:44:53;95064.13;;;25.69;47.23
71194;BME280;58903;47.210;8.618;2022-10-28T05:47:19;95061.63;;;25.71;47.42
71194;BME280;58903;47.210;8.618;2022-10-28T05:49:47;95063.16;;;25.72;47.43
71194;BME280;58903;47.210;8.618;2022-10-28T05:52:13;95063.16;;;25.72;47.25
71194;BME280;58903;47.210;8.618;2022-10-28T05:54:48;95069.63;;;25.69;47.22
71194;BME280;58903;47.210;8.618;2022-10-28T05:57:25;95072.91;;;25.68;47.94
71194;BME280;58903;47.210;8.618;2022-10-28T05:59:51;95077.38;;;25.65;47.48
71194;BME280;58903;47.210;8.618;2022-10-28T06:02:21;95072.63;;;25.66;47.64
71194;BME280;58903;47.210;8.618;2022-10-28T06:04:50;95079.88;;;25.63;47.49
71194;BME280;58903;47.210;8.618;2022-10-28T06:07:17;95086.41;;;25.66;47.66
71194;BME280;58903;47.210;8.618;2022-10-28T06:09:50;95092.13;;;25.62;47.28
71194;BME280;58903;47.210;8.618;2022-10-28T06:12:17;95091.41;;;25.62;47.56
71194;BME280;58903;47.210;8.618;2022-10-28T06:14:44;95082.34;;;25.56;48.13
71194;BME280;58903;47.210;8.618;2022-10-28T06:17:17;95095.91;;;25.59;47.77
71194;BME280;58903;47.210;8.618;2022-10-28T06:19:45;95099.88;;;25.58;48.19
71194;BME280;58903;47.210;8.618;2022-10-28T06:22:21;95112.69;;;25.61;47.82
71194;BME280;58903;47.210;8.618;2022-10-28T06:24:50;95109.44;;;25.63;47.28
71194;BME280;58903;47.210;8.618;2022-10-28T06:27:16;95113.97;;;25.66;46.98
71194;BME280;58903;47.210;8.618;2022-10-28T06:29:41;95121.72;;;25.67;47.26
71194;BME280;58903;47.210;8.618;2022-10-28T06:32:12;95119.22;;;25.69;47.31
71194;BME280;58903;47.210;8.618;2022-10-28T06:34:46;95108.72;;;25.68;46.81
71194;BME280;58903;47.210;8.618;2022-10-28T06:37:19;95127.50;;;25.69;47.23
71194;BME280;58903;47.210;8.618;2022-10-28T06:39:45;95122.75;;;25.70;47.00
71194;BME280;58903;47.210;8.618;2022-10-28T06:42:18;95120.75;;;25.70;47.10
71194;BME280;58903;47.210;8.618;2022-10-28T06:44:56;95126.25;;;25.70;47.43
71194;BME280;58903;47.210;8.618;2022-10-28T06:47:30;95128.50;;;25.72;46.95
71194;BME280;58903;47.210;8.618;2022-10-28T06:50:03;95125.00;;;25.71;47.11
71194;BME280;58903;47.210;8.618;2022-10-28T06:52:29;95126.50;;;25.72;47.41
71194;BME280;58903;47.210;8.618;2022-10-28T06:55:06;95128.50;;;25.72;47.40
71194;BME280;58903;47.210;8.618;2022-10-28T06:57:41;95118.00;;;25.70;47.29
71194;BME280;58903;47.210;8.618;2022-10-28T07:00:13;95125.75;;;25.72;47.43
71194;BME280;58903;47.210;8.618;2022-10-28T07:02:42;95127.75;;;25.71;47.36
71194;BME280;58903;47.210;8.618;2022-10-28T07:05:11;95130.50;;;25.66;46.69
71194;BME280;58903;47.210;8.618;2022-10-28T07:07:41;95150.78;;;25.68;47.40
71194;BME280;58903;47.210;8.618;2022-10-28T07:10:08;95144.25;;;25.66;47.22
71194;BME280;58903;47.210;8.618;2022-10-28T07:12:34;95140.25;;;25.67;47.45
71194;BME280;58903;47.210;8.618;2022-10-28T07:15:00;95134.25;;;25.68;47.04
71194;BME280;58903;47.210;8.618;2022-10-28T07:17:27;95131.25;;;25.66;47.29
71194;BME280;58903;47.210;8.618;2022-10-28T07:19:58;95127.22;;;25.67;46.97
71194;BME280;58903;47.210;8.618;2022-10-28T07:22:24;95131.00;;;25.64;47.27
71194;BME280;58903;47.210;8.618;2022-10-28T07:24:49;95128.72;;;25.63;47.30
71194;BME280;58903;47.210;8.618;2022-10-28T07:27:15;95128.25;;;25.64;47.28
71194;BME280;58903;47.210;8.618;2022-10-28T07:29:41;95136.50;;;25.64;46.94
71194;BME280;58903;47.210;8.618;2022-10-28T07:32:11;95140.75;;;25.65;47.29
71194;BME280;58903;47.210;8.618;2022-10-28T07:34:37;95142.28;;;25.66;46.77
71194;BME280;58903;47.210;8.618;2022-10-28T07:37:05;95142.28;;;25.66;47.34
71194;BME280;58903;47.210;8.618;2022-10-28T07:39:31;95145.03;;;25.66;46.61
71194;BME280;58903;47.210;8.618;2022-10-28T07:41:59;95140.25;;;25.67;47.33
71194;BME280;58903;47.210;8.618;2022-10-28T07:44:30;95137.50;;;25.67;46.57
71194;BME280;58903;47.210;8.618;2022-10-28T07:46:56;95146.00;;;25.69;46.97
71194;BME280;58903;47.210;8.618;2022-10-28T07:49:24;95132.75;;;25.67;47.16
71194;BME280;58903;47.210;8.618;2022-10-28T07:51:52;95133.50;;;25.68;47.14
71194;BME280;58903;47.210;8.618;2022-10-28T07:54:25;95143.50;;;25.65;47.02
71194;BME280;58903;47.210;8.618;2022-10-28T07:56:52;95148.75;;;25.63;46.54
71194;BME280;58903;47.210;8.618;2022-10-28T07:59:18;95150.28;;;25.64;46.75
71194;BME280;58903;47.210;8.618;2022-10-28T08:01:47;95142.47;;;25.63;47.18
71194;BME280;58903;47.210;8.618;2022-10-28T08:04:15;95141.25;;;25.64;47.04
71194;BME280;58903;47.210;8.618;2022-10-28T08:06:42;95133.75;;;25.64;47.00
71194;BME280;58903;47.210;8.618;2022-10-28T08:09:08;95139.72;;;25.63;46.82
71194;BME280;58903;47.210;8.618;2022-10-28T08:11:39;95137.72;;;25.63;46.73
71194;BME280;58903;47.210;8.618;2022-10-28T08:14:12;95141.25;;;25.64;47.03
71194;BME280;58903;47.210;8.618;2022-10-28T08:16:38;95143.50;;;25.65;46.66
71194;BME280;58903;47.210;8.618;2022-10-28T08:19:04;95144.00;;;25.64;46.77
71194;BME280;58903;47.210;8.618;2022-10-28T08:21:32;95137.72;;;25.63;46.85
71194;BME280;58903;47.210;8.618;2022-10-28T08:23:58;95132.22;;;25.63;47.00
71194;BME280;58903;47.210;8.618;2022-10-28T08:26:26;95132.22;;;25.63;46.95
71194;BME280;58903;47.210;8.618;2022-10-28T08:28:54;95126.72;;;25.63;46.55
71194;BME280;58903;47.210;8.618;2022-10-28T08:31:20;95122.94;;;25.61;46.55
71194;BME280;58903;47.210;8.618;2022-10-28T08:33:48;95123.19;;;25.63;46.49
71194;BME280;58903;47.210;8.618;2022-10-28T08:36:24;95119.44;;;25.60;47.19
71194;BME280;58903;47.210;8.618;2022-10-28T08:39:03;95129.97;;;25.62;46.94
71194;BME280;58903;47.210;8.618;2022-10-28T08:41:54;95128.72;;;25.63;47.01
71194;BME280;58903;47.210;8.618;2022-10-28T08:44:42;95134.97;;;25.63;47.18
71194;BME280;58903;47.210;8.618;2022-10-28T08:49:55;95133.47;;;25.62;46.32
71194;BME280;58903;47.210;8.618;2022-10-28T08:58:01;95133.47;;;25.62;47.11
71194;BME280;58903;47.210;8.618;2022-10-28T09:00:54;95134.22;;;25.63;46.55
71194;BME280;58903;47.210;8.618;2022-10-28T09:03:35;95136.22;;;25.62;46.77
71194;BME280;58903;47.210;8.618;2022-10-28T09:06:09;95135.75;;;25.64;46.48
71194;BME280;58903;47.210;8.618;2022-10-28T09:09:09;95137.72;;;25.63;46.25
71194;BME280;58903;47.210;8.618;2022-10-28T09:15:27;95135.75;;;25.64;46.24
71194;BME280;58903;47.210;8.618;2022-10-28T09:21:13;95143.25;;;25.63;47.19
71194;BME280;58903;47.210;8.618;2022-10-28T09:23:52;95150.75;;;25.63;47.10
71194;BME280;58903;47.210;8.618;2022-10-28T09:26:34;95155.78;;;25.64;46.54
71194;BME280;58903;47.210;8.618;2022-10-28T09:32:33;95148.75;;;25.63;46.05
71194;BME280;58903;47.210;8.618;2022-10-28T09:35:32;95148.75;;;25.63;46.09
71194;BME280;58903;47.210;8.618;2022-10-28T09:38:15;95154.78;;;25.62;46.61
71194;BME280;58903;47.210;8.618;2022-10-28T09:41:35;95166.25;;;25.60;46.24
71194;BME280;58903;47.210;8.618;2022-10-28T09:48:02;95165.75;;;25.56;46.92
71194;BME280;58903;47.210;8.618;2022-10-28T09:50:41;95175.00;;;25.53;46.77
71194;BME280;58903;47.210;8.618;2022-10-28T09:53:34;95179.25;;;25.54;46.86
71194;BME280;58903;47.210;8.618;2022-10-28T09:56:16;95173.25;;;25.56;47.21
71194;BME280;58903;47.210;8.618;2022-10-28T09:58:57;95170.78;;;25.58;46.74
71194;BME280;58903;47.210;8.618;2022-10-28T10:01:37;95168.75;;;25.58;47.54
71194;BME280;58903;47.210;8.618;2022-10-28T10:04:24;95182.00;;;25.54;47.34
71194;BME280;58903;47.210;8.618;2022-10-28T10:07:19;95178.50;;;25.54;48.73
71194;BME280;58903;47.210;8.618;2022-10-28T10:10:31;95177.75;;;25.53;48.97
71194;BME280;58903;47.210;8.618;2022-10-28T10:13:14;95180.50;;;25.53;48.89
71194;BME280;58903;47.210;8.618;2022-10-28T10:15:45;95169.75;;;25.55;48.73
71194;BME280;58903;47.210;8.618;2022-10-28T10:18:46;95186.03;;;25.59;48.14
71194;BME280;58903;47.210;8.618;2022-10-28T10:21:14;95182.25;;;25.56;49.25
71194;BME280;58903;47.210;8.618;2022-10-28T10:23:43;95182.75;;;25.55;49.19
71194;BME280;58903;47.210;8.618;2022-10-28T10:26:12;95190.28;;;25.54;49.27
71194;BME280;58903;47.210;8.618;2022-10-28T10:28:44;95186.28;;;25.55;48.58
71194;BME280;58903;47.210;8.618;2022-10-28T10:31:24;95181.75;;;25.52;48.48
71194;BME280;58903;47.210;8.618;2022-10-28T10:33:59;95181.50;;;25.56;49.06
71194;BME280;58903;47.210;8.618;2022-10-28T10:36:48;95176.28;;;25.58;48.53
71194;BME280;58903;47.210;8.618;2022-10-28T10:39:30;95178.53;;;25.59;48.92
71194;BME280;58903;47.210;8.618;2022-10-28T10:41:58;95179.03;;;25.58;48.26
71194;BME280;58903;47.210;8.618;2022-10-28T10:44:34;95181.56;;;25.61;48.55
71194;BME280;58903;47.210;8.618;2022-10-28T10:49:46;95169.06;;;25.66;48.49
71194;BME280;58903;47.210;8.618;2022-10-28T10:52:21;95161.28;;;25.64;48.59
71194;BME280;58903;47.210;8.618;2022-10-28T10:55:03;95152.75;;;25.62;48.13
71194;BME280;58903;47.210;8.618;2022-10-28T10:57:31;95153.25;;;25.61;47.34
71194;BME280;58903;47.210;8.618;2022-10-28T11:00:05;95149.72;;;25.60;47.45
71194;BME280;58903;47.210;8.618;2022-10-28T11:02:43;95153.50;;;25.63;47.93
71194;BME280;58903;47.210;8.618;2022-10-28T11:05:30;95147.78;;;25.66;47.17
71194;BME280;58903;47.210;8.618;2022-10-28T11:08:01;95146.25;;;25.65;47.46
71194;BME280;58903;47.210;8.618;2022-10-28T11:11:05;95147.78;;;25.66;47.43
71194;BME280;58903;47.210;8.618;2022-10-28T11:13:34;95149.50;;;25.64;47.32
71194;BME280;58903;47.210;8.618;2022-10-28T11:16:29;95135.75;;;25.64;47.53
71194;BME280;58903;47.210;8.618;2022-10-28T11:19:32;95130.22;;;25.64;47.78
71194;BME280;58903;47.210;8.618;2022-10-28T11:28:04;95129.72;;;25.65;46.52
71194;BME280;58903;47.210;8.618;2022-10-28T11:36:44;95120.44;;;25.63;46.94
71194;BME280;58903;47.210;8.618;2022-10-28T11:39:22;95119.72;;;25.68;46.16
71194;BME280;58903;47.210;8.618;2022-10-28T11:51:17;95101.19;;;25.68;45.86
71194;BME280;58903;47.210;8.618;2022-10-28T11:57:12;95106.97;;;25.70;46.11
71194;BME280;58903;47.210;8.618;2022-10-28T12:07:37;95083.66;;;25.71;46.21
71194;BME280;58903;47.210;8.618;2022-10-28T12:18:34;95085.69;;;25.76;45.85
71194;BME280;58903;47.210;8.618;2022-10-28T12:23:57;95078.69;;;25.81;46.47
71194;BME280;58903;47.210;8.618;2022-10-28T12:26:35;95073.19;;;25.81;46.65
71194;BME280;58903;47.210;8.618;2022-10-28T12:32:17;95068.19;;;25.79;46.21
71194;BME280;58903;47.210;8.618;2022-10-28T12:41:01;95059.13;;;25.73;46.03
71194;BME280;58903;47.210;8.618;2022-10-28T12:43:36;95071.16;;;25.76;46.59
71194;BME280;58903;47.210;8.618;2022-10-28T12:46:06;95063.66;;;25.76;45.98
71194;BME280;58903;47.210;8.618;2022-10-28T12:48:43;95061.41;;;25.75;45.75
71194;BME280;58903;47.210;8.618;2022-10-28T12:51:26;95058.66;;;25.75;46.10
71194;BME280;58903;47.210;8.618;2022-10-28T12:57:46;95059.66;;;25.77;45.72
71194;BME280;58903;47.210;8.618;2022-10-28T13:00:22;95053.41;;;25.77;45.57
71194;BME280;58903;47.210;8.618;2022-10-28T13:03:12;95056.16;;;25.77;45.72
71194;BME280;58903;47.210;8.618;2022-10-28T13:08:34;95072.19;;;25.78;45.97
71194;BME280;58903;47.210;8.618;2022-10-28T13:27:44;95058.41;;;25.84;46.41
71194;BME280;58903;47.210;8.618;2022-10-28T13:30:22;95054.91;;;25.89;46.24
71194;BME280;58903;47.210;8.618;2022-10-28T13:33:07;95054.91;;;25.89;46.61
71194;BME280;58903;47.210;8.618;2022-10-28T13:35:43;95060.19;;;25.87;46.46
71194;BME280;58903;47.210;8.618;2022-10-28T13:38:31;95064.19;;;25.86;46.53
71194;BME280;58903;47.210;8.618;2022-10-28T13:41:18;95061.91;;;25.84;46.76
71194;BME280;58903;47.210;8.618;2022-10-28T13:44:12;95063.91;;;25.84;47.01
71194;BME280;58903;47.210;8.618;2022-10-28T13:46:58;95071.72;;;25.85;46.52
71194;BME280;58903;47.210;8.618;2022-10-28T13:55:58;95066.72;;;25.89;47.07
71194;BME280;58903;47.210;8.618;2022-10-28T13:58:26;95062.94;;;25.87;46.98
71194;BME280;58903;47.210;8.618;2022-10-28T14:00:54;95058.69;;;25.91;46.83
71194;BME280;58903;47.210;8.618;2022-10-28T14:03:24;95065.47;;;25.96;46.82
71194;BME280;58903;47.210;8.618;2022-10-28T14:06:03;95061.22;;;26.00;47.12
71194;BME280;58903;47.210;8.618;2022-10-28T14:08:39;95062.50;;;26.05;47.01
71194;BME280;58903;47.210;8.618;2022-10-28T14:11:25;95062.28;;;26.08;47.46
71194;BME280;58903;47.210;8.618;2022-10-28T14:14:05;95066.53;;;26.09;47.17
71194;BME280;58903;47.210;8.618;2022-10-28T14:16:46;95064.75;;;26.06;47.18
71194;BME280;58903;47.210;8.618;2022-10-28T14:19:21;95070.78;;;26.10;47.47
71194;BME280;58903;47.210;8.618;2022-10-28T14:31:32;95058.78;;;26.13;46.95
71194;BME280;58903;47.210;8.618;2022-10-28T14:40:01;95066.31;;;26.19;46.51
71194;BME280;58903;47.210;8.618;2022-10-28T14:49:24;95075.09;;;26.28;46.88
71194;BME280;58903;47.210;8.618;2022-10-28T14:51:52;95062.31;;;26.31;46.56
71194;BME280;58903;47.210;8.618;2022-10-28T14:54:42;95059.06;;;26.32;46.71
71194;BME280;58903;47.210;8.618;2022-10-28T14:57:10;95063.31;;;26.39;47.30
71194;BME280;58903;47.210;8.618;2022-10-28T15:00:05;95068.09;;;26.44;46.82
71194;BME280;58903;47.210;8.618;2022-10-28T15:02:42;95074.59;;;26.41;47.00
71194;BME280;58903;47.210;8.618;2022-10-28T15:08:05;95076.13;;;26.42;46.55
71194;BME280;58903;47.210;8.618;2022-10-28T15:10:51;95069.34;;;26.43;46.99
71194;BME280;58903;47.210;8.618;2022-10-28T15:13:25;95066.84;;;26.45;46.60
71194;BME280;58903;47.210;8.618;2022-10-28T15:16:05;95072.63;;;26.47;46.87
71194;BME280;58903;47.210;8.618;2022-10-28T15:18:31;95081.63;;;26.47;46.83
71194;BME280;58903;47.210;8.618;2022-10-28T15:21:12;95069.88;;;26.47;46.96
71194;BME280;58903;47.210;8.618;2022-10-28T15:23:40;95070.59;;;26.47;47.15
71194;BME280;58903;47.210;8.618;2022-10-28T15:26:14;95067.09;;;26.47;47.03
71194;BME280;58903;47.210;8.618;2022-10-28T15:28:41;95063.84;;;26.48;47.12
71194;BME280;58903;47.210;8.618;2022-10-28T15:31:08;95064.09;;;26.50;47.10
71194;BME280;58903;47.210;8.618;2022-10-28T15:33:39;95058.31;;;26.48;46.63
71194;BME280;58903;47.210;8.618;2022-10-28T15:36:21;95056.31;;;26.49;47.05
71194;BME280;58903;47.210;8.618;2022-10-28T15:39:04;95055.31;;;26.46;46.84
71194;BME280;58903;47.210;8.618;2022-10-28T15:41:45;95056.06;;;26.47;46.75
71194;BME280;58903;47.210;8.618;2022-10-28T15:44:30;95054.81;;;26.48;46.88
71194;BME280;58903;47.210;8.618;2022-10-28T15:46:58;95044.28;;;26.46;46.55
71194;BME280;58903;47.210;8.618;2022-10-28T15:49:36;95038.50;;;26.44;46.69
71194;BME280;58903;47.210;8.618;2022-10-28T15:54:55;95030.72;;;26.43;46.38
71194;BME280;58903;47.210;8.618;2022-10-28T15:57:24;95029.75;;;26.40;46.63
71194;BME280;58903;47.210;8.618;2022-10-28T16:00:31;95035.25;;;26.40;46.35
71194;BME280;58903;47.210;8.618;2022-10-28T16:03:02;95033.75;;;26.39;47.03
71194;BME280;58903;47.210;8.618;2022-10-28T16:05:41;95031.50;;;26.38;46.67
71194;BME280;58903;47.210;8.618;2022-10-28T16:08:26;95027.97;;;26.37;46.83
71194;BME280;58903;47.210;8.618;2022-10-28T16:11:14;95027.22;;;26.37;47.18
71194;BME280;58903;47.210;8.618;2022-10-28T16:13:55;95026.44;;;26.36;46.42
71194;BME280;58903;47.210;8.618;2022-10-28T16:16:33;95038.25;;;26.37;46.56
71194;BME280;58903;47.210;8.618;2022-10-28T16:19:26;95036.00;;;26.35;46.71
71194;BME280;58903;47.210;8.618;2022-10-28T16:21:56;95026.72;;;26.33;47.23
71194;BME280;58903;47.210;8.618;2022-10-28T16:24:25;95028.22;;;26.34;46.71
71194;BME280;58903;47.210;8.618;2022-10-28T16:27:10;95019.19;;;26.33;46.75
71194;BME280;58903;47.210;8.618;2022-10-28T16:29:38;95022.94;;;26.30;46.60
71194;BME280;58903;47.210;8.618;2022-10-28T16:32:12;95022.47;;;26.32;46.70
71194;BME280;58903;47.210;8.618;2022-10-28T16:34:56;95022.94;;;26.30;46.60
71194;BME280;58903;47.210;8.618;2022-10-28T16:37:43;95025.22;;;26.32;46.96